createdAt,value
2019-04-29T00:01:18.416Z,88.13
2019-04-29T00:03:56.931Z,87.95
2019-04-29T00:06:35.173Z,87.91
2019-04-29T00:09:20.063Z,87.83
2019-04-29T00:11:57.687Z,87.62
2019-04-29T00:14:35.157Z,87.49
2019-04-29T00:17:29.761Z,87.46
2019-04-29T00:20:24.255Z,87.46
2019-04-29T00:23:10.450Z,87.76
2019-04-29T00:26:01.926Z,87.94
2019-04-29T00:28:54.039Z,87.98
2019-04-29T00:31:55.286Z,87.86
2019-04-29T00:34:38.266Z,88.10
2019-04-29T00:37:34.633Z,88.10
2019-04-29T00:40:38.236Z,88.83
2019-04-29T00:43:32.038Z,88.97
2019-04-29T00:46:11.651Z,88.99
2019-04-29T00:48:52.402Z,88.87
2019-04-29T00:51:31.810Z,88.55
2019-04-29T00:54:25.494Z,88.78
2019-04-29T00:57:06.945Z,89.04
2019-04-29T00:59:47.507Z,88.98
2019-04-29T01:02:27.814Z,89.19
2019-04-29T01:05:08.183Z,88.76
2019-04-29T01:07:47.536Z,89.03
2019-04-29T01:10:27.023Z,89.18
2019-04-29T01:13:07.134Z,89.01
2019-04-29T01:15:48.399Z,89.37
2019-04-29T01:18:27.201Z,89.21
2019-04-29T01:21:07.224Z,89.35
2019-04-29T01:23:47.187Z,89.46
2019-04-29T01:26:40.098Z,90.02
2019-04-29T01:29:14.747Z,90.00
2019-04-29T01:31:51.795Z,89.90
2019-04-29T01:34:42.027Z,90.02
2019-04-29T01:37:19.348Z,89.42
2019-04-29T01:40:17.179Z,89.66
2019-04-29T01:42:55.434Z,89.54
2019-04-29T01:45:34.170Z,89.75
2019-04-29T01:48:14.767Z,89.78
2019-04-29T01:50:52.892Z,90.28
2019-04-29T01:53:31.159Z,90.12
2019-04-29T01:56:12.021Z,89.69
2019-04-29T01:58:50.349Z,89.23
2019-04-29T02:01:28.412Z,89.03
2019-04-29T02:04:05.981Z,89.90
2019-04-29T02:06:43.911Z,89.69
2019-04-29T02:09:29.916Z,89.42
2019-04-29T02:12:09.168Z,89.66
2019-04-29T02:14:46.595Z,89.66
2019-04-29T02:17:24.347Z,89.53
2019-04-29T02:20:00.725Z,89.45
2019-04-29T02:22:55.074Z,89.50
2019-04-29T02:25:34.786Z,89.49
2019-04-29T02:28:11.209Z,89.75
2019-04-29T02:30:48.940Z,90.01
2019-04-29T02:33:26.539Z,89.94
2019-04-29T02:36:01.270Z,89.58
2019-04-29T02:38:44.623Z,89.87
2019-04-29T02:41:34.084Z,89.95
2019-04-29T02:44:12.457Z,89.90
2019-04-29T02:46:46.352Z,89.87
2019-04-29T02:49:25.770Z,89.60
2019-04-29T02:52:03.352Z,89.51
2019-04-29T02:54:40.126Z,89.78
2019-04-29T02:57:36.676Z,89.51
2019-04-29T03:00:33.060Z,89.70
2019-04-29T03:03:19.598Z,90.23
2019-04-29T03:06:03.686Z,90.09
2019-04-29T03:08:45.116Z,90.09
2019-04-29T03:11:25.857Z,90.33
2019-04-29T03:14:03.208Z,90.10
2019-04-29T03:16:36.117Z,90.54
2019-04-29T03:19:12.805Z,90.21
2019-04-29T03:21:49.154Z,90.82
2019-04-29T03:24:21.641Z,90.23
2019-04-29T03:26:54.626Z,89.88
2019-04-29T03:29:26.826Z,89.59
2019-04-29T03:31:58.890Z,89.40
2019-04-29T03:34:31.002Z,90.48
2019-04-29T03:37:02.016Z,89.71
2019-04-29T03:39:34.138Z,90.54
2019-04-29T03:42:07.365Z,90.04
2019-04-29T03:44:37.880Z,90.79
2019-04-29T03:47:09.876Z,91.13
2019-04-29T03:49:42.438Z,90.28
2019-04-29T03:52:13.648Z,89.75
2019-04-29T03:54:46.021Z,90.63
2019-04-29T03:57:19.246Z,89.98
2019-04-29T03:59:51.665Z,89.68
2019-04-29T04:02:33.390Z,89.43
2019-04-29T04:05:16.979Z,89.44
2019-04-29T04:07:53.187Z,89.20
2019-04-29T04:10:25.578Z,89.17
2019-04-29T04:12:58.366Z,89.14
2019-04-29T04:15:32.055Z,89.19
2019-04-29T04:18:23.068Z,89.19
2019-04-29T04:20:55.247Z,89.36
2019-04-29T04:23:26.364Z,89.46
2019-04-29T04:25:58.518Z,90.44
2019-04-29T04:28:30.548Z,89.88
2019-04-29T04:31:06.233Z,89.37
2019-04-29T04:33:34.685Z,90.20
2019-04-29T04:36:06.919Z,90.54
2019-04-29T04:38:39.352Z,89.69
2019-04-29T04:41:11.946Z,89.77
2019-04-29T04:43:44.153Z,89.69
2019-04-29T04:46:16.147Z,89.60
2019-04-29T04:48:48.462Z,89.57
2019-04-29T04:51:20.938Z,89.28
2019-04-29T04:53:51.855Z,89.09
2019-04-29T04:56:23.736Z,90.21
2019-04-29T04:58:55.696Z,89.51
2019-04-29T05:01:26.960Z,89.34
2019-04-29T05:03:58.828Z,90.26
2019-04-29T05:06:30.836Z,89.69
2019-04-29T05:09:04.526Z,89.45
2019-04-29T05:11:36.706Z,89.25
2019-04-29T05:14:08.806Z,89.13
2019-04-29T05:16:41.046Z,89.19
2019-04-29T05:19:13.318Z,89.09
2019-04-29T05:21:45.237Z,88.90
2019-04-29T05:24:18.099Z,88.95
2019-04-29T05:26:50.166Z,88.95
2019-04-29T05:29:22.248Z,88.69
2019-04-29T05:32:16.350Z,88.75
2019-04-29T05:34:50.276Z,89.69
2019-04-29T05:37:56.927Z,88.86
2019-04-29T05:40:38.498Z,88.69
2019-04-29T05:43:12.936Z,88.66
2019-04-29T05:45:54.618Z,88.77
2019-04-29T05:48:27.587Z,88.84
2019-04-29T05:51:27.258Z,88.79
2019-04-29T05:54:00.196Z,89.10
2019-04-29T05:56:32.341Z,89.34
2019-04-29T05:59:04.418Z,89.16
2019-04-29T06:01:35.404Z,88.95
2019-04-29T06:04:07.226Z,90.11
2019-04-29T06:06:38.234Z,89.35
2019-04-29T06:09:11.582Z,90.20
2019-04-29T06:11:44.115Z,89.21
2019-04-29T06:14:16.307Z,88.76
2019-04-29T06:16:47.204Z,88.80
2019-04-29T06:19:19.076Z,90.12
2019-04-29T06:21:51.006Z,89.03
2019-04-29T06:24:24.046Z,88.60
2019-04-29T06:26:56.146Z,88.44
2019-04-29T06:29:27.157Z,88.65
2019-04-29T06:31:58.946Z,89.88
2019-04-29T06:34:31.388Z,88.75
2019-04-29T06:37:03.397Z,88.52
2019-04-29T06:39:36.912Z,88.43
2019-04-29T06:42:09.116Z,88.71
2019-04-29T06:44:44.352Z,88.62
2019-04-29T06:47:16.961Z,88.38
2019-04-29T06:49:48.867Z,88.23
2019-04-29T06:52:19.824Z,88.63
2019-04-29T06:54:51.655Z,89.51
2019-04-29T06:57:23.717Z,88.13
2019-04-29T06:59:55.839Z,87.94
2019-04-29T07:02:26.806Z,87.85
2019-04-29T07:04:58.570Z,88.56
2019-04-29T07:07:30.628Z,87.34
2019-04-29T07:10:02.647Z,87.33
2019-04-29T07:12:34.654Z,87.07
2019-04-29T07:15:07.619Z,87.05
2019-04-29T07:17:41.361Z,87.19
2019-04-29T07:20:14.527Z,87.11
2019-04-29T07:22:46.396Z,87.17
2019-04-29T07:25:18.429Z,87.22
2019-04-29T07:27:49.425Z,87.20
2019-04-29T07:30:21.340Z,88.40
2019-04-29T07:32:53.366Z,87.11
2019-04-29T07:35:25.343Z,86.95
2019-04-29T07:37:57.261Z,86.98
2019-04-29T07:40:29.329Z,86.69
2019-04-29T07:43:02.831Z,87.18
2019-04-29T07:45:45.386Z,86.75
2019-04-29T07:48:17.417Z,87.03
2019-04-29T07:50:49.526Z,86.67
2019-04-29T07:53:21.831Z,86.56
2019-04-29T07:55:53.937Z,88.18
2019-04-29T07:58:27.319Z,86.76
2019-04-29T08:00:59.853Z,86.18
2019-04-29T08:03:31.015Z,85.72
2019-04-29T08:06:03.140Z,87.71
2019-04-29T08:08:35.665Z,85.56
2019-04-29T08:11:07.726Z,85.50
2019-04-29T08:13:39.805Z,85.95
2019-04-29T08:16:12.609Z,87.35
2019-04-29T08:18:49.485Z,85.72
2019-04-29T08:21:19.387Z,85.31
2019-04-29T08:23:50.465Z,85.51
2019-04-29T08:26:22.165Z,87.22
2019-04-29T08:29:00.346Z,85.43
2019-04-29T08:31:27.834Z,85.54
2019-04-29T08:33:59.886Z,85.18
2019-04-29T08:36:32.034Z,85.01
2019-04-29T08:39:08.788Z,84.98
2019-04-29T08:41:40.146Z,85.09
2019-04-29T08:44:39.176Z,85.64
2019-04-29T08:47:23.619Z,85.52
2019-04-29T08:49:52.644Z,85.49
2019-04-29T08:52:24.416Z,87.04
2019-04-29T08:54:57.393Z,85.27
2019-04-29T08:57:31.926Z,85.46
2019-04-29T09:00:03.688Z,85.27
2019-04-29T09:02:35.909Z,85.12
2019-04-29T09:05:11.414Z,84.62
2019-04-29T09:07:43.376Z,84.37
2019-04-29T09:10:15.666Z,83.83
2019-04-29T09:12:47.745Z,83.71
2019-04-29T09:15:19.993Z,83.15
2019-04-29T09:17:52.314Z,82.78
2019-04-29T09:20:24.356Z,82.90
2019-04-29T09:23:00.791Z,82.46
2019-04-29T09:26:02.006Z,82.11
2019-04-29T09:28:28.484Z,82.23
2019-04-29T09:30:57.545Z,82.54
2019-04-29T09:33:29.686Z,82.30
2019-04-29T09:36:01.707Z,81.27
2019-04-29T09:38:36.958Z,80.31
2019-04-29T09:41:17.886Z,81.47
2019-04-29T09:44:11.866Z,78.97
2019-04-29T09:46:44.204Z,78.66
2019-04-29T09:49:15.145Z,77.30
2019-04-29T09:51:46.926Z,79.30
2019-04-29T09:54:18.947Z,76.31
2019-04-29T09:56:50.896Z,76.05
2019-04-29T09:59:26.826Z,75.39
2019-04-29T10:02:16.506Z,75.15
2019-04-29T10:04:57.010Z,75.34
2019-04-29T10:07:29.867Z,75.88
2019-04-29T10:10:06.590Z,74.25
2019-04-29T10:12:36.036Z,71.99
2019-04-29T10:15:09.888Z,71.87
2019-04-29T10:18:03.730Z,71.71
2019-04-29T10:20:42.576Z,72.49
2019-04-29T10:23:14.678Z,72.22
2019-04-29T10:25:46.827Z,72.84
2019-04-29T10:28:19.626Z,72.06
2019-04-29T10:30:50.829Z,71.34
2019-04-29T10:33:23.186Z,72.52
2019-04-29T10:35:55.206Z,71.49
2019-04-29T10:38:26.465Z,70.90
2019-04-29T10:41:10.111Z,69.20
2019-04-29T10:44:04.026Z,67.75
2019-04-29T10:46:58.796Z,68.69
2019-04-29T10:49:51.457Z,68.63
2019-04-29T10:52:23.814Z,69.93
2019-04-29T10:54:56.754Z,70.51
2019-04-29T10:57:29.452Z,70.10
2019-04-29T11:00:11.033Z,69.45
2019-04-29T11:02:44.690Z,68.82
2019-04-29T11:05:36.706Z,69.02
2019-04-29T11:08:27.546Z,69.73
2019-04-29T11:11:02.347Z,70.35
2019-04-29T11:13:33.606Z,71.18
2019-04-29T11:16:04.755Z,71.78
2019-04-29T11:18:36.767Z,70.55
2019-04-29T11:21:09.118Z,73.48
2019-04-29T11:24:00.027Z,72.49
2019-04-29T11:26:48.727Z,70.40
2019-04-29T11:29:22.116Z,68.44
2019-04-29T11:31:56.090Z,66.82
2019-04-29T11:34:48.394Z,65.59
2019-04-29T11:37:23.958Z,64.57
2019-04-29T11:39:57.159Z,65.18
2019-04-29T11:42:31.861Z,65.54
2019-04-29T11:45:06.427Z,67.23
2019-04-29T11:47:38.488Z,67.08
2019-04-29T11:50:34.575Z,66.80
2019-04-29T11:53:07.595Z,65.67
2019-04-29T11:55:42.426Z,67.05
2019-04-29T11:58:29.727Z,67.60
2019-04-29T12:01:38.394Z,65.82
2019-04-29T12:04:08.510Z,64.47
2019-04-29T12:06:40.586Z,65.62
2019-04-29T12:09:11.935Z,66.71
2019-04-29T12:11:44.856Z,65.40
2019-04-29T12:14:26.188Z,69.02
2019-04-29T12:17:12.207Z,69.54
2019-04-29T12:19:44.917Z,70.18
2019-04-29T12:22:28.263Z,69.82
2019-04-29T12:24:51.046Z,69.40
2019-04-29T12:27:23.406Z,70.06
2019-04-29T12:29:59.222Z,69.56
2019-04-29T12:32:43.616Z,69.04
2019-04-29T12:35:24.876Z,69.29
2019-04-29T12:38:14.696Z,68.60
2019-04-29T12:40:58.706Z,68.26
2019-04-29T12:43:59.145Z,69.09
2019-04-29T12:46:41.039Z,69.25
2019-04-29T12:49:13.932Z,69.06
2019-04-29T12:51:46.210Z,68.93
2019-04-29T12:54:17.266Z,69.28
2019-04-29T12:56:49.518Z,70.00
2019-04-29T12:59:22.050Z,67.70
2019-04-29T13:02:14.049Z,66.91
2019-04-29T13:05:13.047Z,67.13
2019-04-29T13:08:02.316Z,66.31
2019-04-29T13:10:44.236Z,66.92
2019-04-29T13:13:20.015Z,67.06
2019-04-29T13:16:19.998Z,67.74
2019-04-29T13:19:14.489Z,67.78
2019-04-29T13:21:44.054Z,66.18
2019-04-29T13:24:23.485Z,63.68
2019-04-29T13:26:47.651Z,61.77
2019-04-29T13:29:26.789Z,61.55
2019-04-29T13:31:53.122Z,61.50
2019-04-29T13:34:33.621Z,66.72
2019-04-29T13:37:08.051Z,67.70
2019-04-29T13:39:40.891Z,68.71
2019-04-29T13:42:15.915Z,69.35
2019-04-29T13:45:04.991Z,69.24
2019-04-29T13:47:39.647Z,67.58
2019-04-29T13:50:31.322Z,66.27
2019-04-29T13:52:52.126Z,66.41
2019-04-29T13:55:47.210Z,65.18
2019-04-29T13:57:59.047Z,63.40
2019-04-29T14:00:55.735Z,63.76
2019-04-29T14:03:32.146Z,64.90
2019-04-29T14:06:04.966Z,65.75
2019-04-29T14:08:37.047Z,66.55
2019-04-29T14:11:09.006Z,67.29
2019-04-29T14:13:43.180Z,67.88
2019-04-29T14:16:13.716Z,63.96
2019-04-29T14:18:48.216Z,68.01
2019-04-29T14:21:19.686Z,68.38
2019-04-29T14:23:51.667Z,68.71
2019-04-29T14:26:23.656Z,69.86
2019-04-29T14:28:55.709Z,70.44
2019-04-29T14:31:30.014Z,70.72
2019-04-29T14:34:05.347Z,68.51
2019-04-29T14:36:37.386Z,71.70
2019-04-29T14:39:13.010Z,72.47
2019-04-29T14:41:50.998Z,71.70
2019-04-29T14:44:36.737Z,72.32
2019-04-29T14:47:15.627Z,72.18
2019-04-29T14:49:54.923Z,72.11
2019-04-29T14:52:25.106Z,71.61
2019-04-29T14:54:57.129Z,71.37
2019-04-29T14:57:29.349Z,71.56
2019-04-29T15:00:01.649Z,71.25
2019-04-29T15:02:35.442Z,70.21
2019-04-29T15:05:07.307Z,69.32
2019-04-29T15:07:39.003Z,69.52
2019-04-29T15:10:11.278Z,67.67
2019-04-29T15:12:52.265Z,68.57
2019-04-29T15:16:03.890Z,66.77
2019-04-29T15:18:50.139Z,66.83
2019-04-29T15:21:42.914Z,67.29
2019-04-29T15:24:10.286Z,68.00
2019-04-29T15:26:41.225Z,68.63
2019-04-29T15:29:13.190Z,68.44
2019-04-29T15:31:47.039Z,67.43
2019-04-29T15:34:18.606Z,67.90
2019-04-29T15:36:50.646Z,69.70
2019-04-29T15:39:25.258Z,69.70
2019-04-29T15:41:56.374Z,70.20
2019-04-29T15:44:28.498Z,70.50
2019-04-29T15:47:00.578Z,70.49
2019-04-29T15:49:32.527Z,71.07
2019-04-29T15:52:03.925Z,71.55
2019-04-29T15:54:35.791Z,71.58
2019-04-29T15:57:09.823Z,71.86
2019-04-29T15:59:49.192Z,72.09
2019-04-29T16:02:15.426Z,72.49
2019-04-29T16:04:53.839Z,72.27
2019-04-29T16:07:46.747Z,72.73
2019-04-29T16:10:58.012Z,72.81
2019-04-29T16:13:29.460Z,73.04
2019-04-29T16:16:01.737Z,73.83
2019-04-29T16:18:33.925Z,74.46
2019-04-29T16:21:04.806Z,74.66
2019-04-29T16:23:38.585Z,74.91
2019-04-29T16:26:10.547Z,74.08
2019-04-29T16:28:42.936Z,74.11
2019-04-29T16:31:15.051Z,74.50
2019-04-29T16:33:47.308Z,75.03
2019-04-29T16:36:20.186Z,76.76
2019-04-29T16:38:51.653Z,76.18
2019-04-29T16:41:38.786Z,80.08
2019-04-29T16:44:34.068Z,80.21
2019-04-29T16:46:45.276Z,78.15
2019-04-29T16:49:16.285Z,77.81
2019-04-29T16:51:53.622Z,80.13
2019-04-29T16:54:28.258Z,79.15
2019-04-29T16:56:56.126Z,79.96
2019-04-29T16:59:27.164Z,81.09
2019-04-29T17:01:59.097Z,84.12
2019-04-29T17:04:30.703Z,81.19
2019-04-29T17:07:12.222Z,83.16
2019-04-29T17:10:07.277Z,81.22
2019-04-29T17:12:46.826Z,80.66
2019-04-29T17:15:25.256Z,80.43
2019-04-29T17:17:52.746Z,80.39
2019-04-29T17:20:24.896Z,80.13
2019-04-29T17:22:57.016Z,80.86
2019-04-29T17:25:29.046Z,81.26
2019-04-29T17:28:24.135Z,81.68
2019-04-29T17:31:12.528Z,84.24
2019-04-29T17:33:56.228Z,82.29
2019-04-29T17:36:28.526Z,82.19
2019-04-29T17:39:00.526Z,82.38
2019-04-29T17:41:34.036Z,82.70
2019-04-29T17:44:22.804Z,82.55
2019-04-29T17:47:06.982Z,84.25
2019-04-29T17:49:57.319Z,82.42
2019-04-29T17:52:30.389Z,82.51
2019-04-29T17:55:15.220Z,82.86
2019-04-29T17:58:08.446Z,82.91
2019-04-29T18:00:59.893Z,83.06
2019-04-29T18:03:56.907Z,83.31
2019-04-29T18:06:35.567Z,83.66
2019-04-29T18:09:30.168Z,83.60
2019-04-29T18:12:06.028Z,83.76
2019-04-29T18:14:41.793Z,84.16
2019-04-29T18:17:24.150Z,83.96
2019-04-29T18:20:00.227Z,84.20
2019-04-29T18:22:51.376Z,83.99
2019-04-29T18:25:32.376Z,84.37
2019-04-29T18:28:05.224Z,84.31
2019-04-29T18:30:38.620Z,84.36
2019-04-29T18:33:10.757Z,84.26
2019-04-29T18:35:42.745Z,84.29
2019-04-29T18:38:14.846Z,84.35
2019-04-29T18:40:46.796Z,84.80
2019-04-29T18:43:23.133Z,86.46
2019-04-29T18:45:56.798Z,84.79
2019-04-29T18:48:27.279Z,84.36
2019-04-29T18:50:59.746Z,84.04
2019-04-29T18:53:31.686Z,83.98
2019-04-29T18:56:05.243Z,84.32
2019-04-29T18:58:37.374Z,84.32
2019-04-29T19:01:09.426Z,84.18
2019-04-29T19:03:48.526Z,84.25
2019-04-29T19:06:21.026Z,84.18
2019-04-29T19:08:54.891Z,84.27
2019-04-29T19:11:32.461Z,84.29
2019-04-29T19:14:05.150Z,84.25
2019-04-29T19:16:39.278Z,84.44
2019-04-29T19:19:11.906Z,84.46
2019-04-29T19:21:45.505Z,84.64
2019-04-29T19:24:18.186Z,84.68
2019-04-29T19:26:55.674Z,84.43
2019-04-29T19:29:24.377Z,84.57
2019-04-29T19:31:56.776Z,84.57
2019-04-29T19:34:40.012Z,84.42
2019-04-29T19:37:02.965Z,84.41
2019-04-29T19:39:35.157Z,84.50
2019-04-29T19:42:07.111Z,84.70
2019-04-29T19:44:39.174Z,84.88
2019-04-29T19:47:15.282Z,84.85
2019-04-29T19:49:45.963Z,85.17
2019-04-29T19:52:28.011Z,85.39
2019-04-29T19:54:52.317Z,85.60
2019-04-29T19:57:24.973Z,85.64
2019-04-29T19:59:57.709Z,85.47
2019-04-29T20:02:30.710Z,85.30
2019-04-29T20:05:10.099Z,85.44
2019-04-29T20:07:44.490Z,85.32
2019-04-29T20:10:17.650Z,85.24
2019-04-29T20:12:53.324Z,85.35
2019-04-29T20:15:25.786Z,85.45
2019-04-29T20:18:35.673Z,85.34
2019-04-29T20:21:21.422Z,85.23
2019-04-29T20:23:52.646Z,85.41
2019-04-29T20:26:28.956Z,85.47
2019-04-29T20:28:56.820Z,85.45
2019-04-29T20:31:30.396Z,85.45
2019-04-29T20:34:03.003Z,85.34
2019-04-29T20:36:41.738Z,85.37
2019-04-29T20:39:15.154Z,85.36
2019-04-29T20:41:47.105Z,85.43
2019-04-29T20:44:17.312Z,85.80
2019-04-29T20:47:13.096Z,85.71
2019-04-29T20:49:23.425Z,85.57
2019-04-29T20:51:59.087Z,85.44
2019-04-29T20:54:32.202Z,85.86
2019-04-29T20:57:06.070Z,85.75
2019-04-29T20:59:42.000Z,85.72
2019-04-29T21:02:13.046Z,85.83
2019-04-29T21:04:47.397Z,85.37
2019-04-29T21:07:23.929Z,85.23
2019-04-29T21:09:53.406Z,85.24
2019-04-29T21:12:38.047Z,85.16
2019-04-29T21:15:14.759Z,85.27
2019-04-29T21:17:46.246Z,85.44
2019-04-29T21:20:17.145Z,85.30
2019-04-29T21:22:52.558Z,85.72
2019-04-29T21:25:24.747Z,85.63
2019-04-29T21:28:00.735Z,85.45
2019-04-29T21:30:35.444Z,85.24
2019-04-29T21:33:08.258Z,85.18
2019-04-29T21:35:45.454Z,85.23
2019-04-29T21:38:39.369Z,85.19
2019-04-29T21:41:19.546Z,85.02
2019-04-29T21:43:53.583Z,85.21
2019-04-29T21:46:25.619Z,85.33
2019-04-29T21:48:57.296Z,84.75
2019-04-29T21:51:29.346Z,84.69
2019-04-29T21:54:01.395Z,84.76
2019-04-29T21:56:33.426Z,85.05
2019-04-29T21:59:09.247Z,85.15
2019-04-29T22:01:39.626Z,84.78
2019-04-29T22:04:11.739Z,84.70
2019-04-29T22:06:45.895Z,84.79
2019-04-29T22:09:18.756Z,84.98
2019-04-29T22:11:50.847Z,84.95
2019-04-29T22:14:24.651Z,85.01
2019-04-29T22:16:57.097Z,85.29
2019-04-29T22:19:29.236Z,85.40
2019-04-29T22:22:01.594Z,85.16
2019-04-29T22:24:35.928Z,85.16
2019-04-29T22:27:08.369Z,85.24
2019-04-29T22:29:40.486Z,84.80
2019-04-29T22:32:14.697Z,84.80
2019-04-29T22:34:45.242Z,85.06
2019-04-29T22:37:17.426Z,84.97
2019-04-29T22:39:48.445Z,85.29
2019-04-29T22:42:39.106Z,85.21
2019-04-29T22:45:12.159Z,85.29
2019-04-29T22:47:43.095Z,85.07
2019-04-29T22:50:15.207Z,85.17
2019-04-29T22:52:47.346Z,85.63
2019-04-29T22:55:18.315Z,85.72
2019-04-29T22:57:50.429Z,87.09
2019-04-29T23:00:26.240Z,86.32
2019-04-29T23:03:02.371Z,86.33
2019-04-29T23:05:32.947Z,85.70
2019-04-29T23:08:05.261Z,85.14
2019-04-29T23:10:36.195Z,85.13
2019-04-29T23:13:07.986Z,86.24
2019-04-29T23:15:40.036Z,85.27
2019-04-29T23:18:23.878Z,84.95
2019-04-29T23:21:07.306Z,85.06
2019-04-29T23:23:45.392Z,85.38
2019-04-29T23:26:18.427Z,85.43
2019-04-29T23:28:50.390Z,85.23
2019-04-29T23:31:22.632Z,85.22
2019-04-29T23:33:56.530Z,85.31
2019-04-29T23:36:28.766Z,85.56
2019-04-29T23:39:00.686Z,85.53
2019-04-29T23:41:36.565Z,85.66
2019-04-29T23:44:09.034Z,85.83
2019-04-29T23:46:41.156Z,85.99
2019-04-29T23:49:15.299Z,85.88
2019-04-29T23:51:46.625Z,85.95
2019-04-29T23:54:18.887Z,85.94
2019-04-29T23:57:16.331Z,85.83
